Rosco Poplar — VRGP5 — position and weather

sailwx.info

Track history (hours):
 
Tides and Currents Weather Stations Pressure Air Temp Water Temp Dewpoint Dewpoint Depression Visibility Wind Speed Wind Dir Waves Ship Positions

Rosco Poplar

Last reported at 2018-Apr-02 16:49 UTC. Time now 2018-Apr-20 06:59 UTC.
Position N 01°13' E 103°31'.
Warning: this ship's position is 17 days out of date.

Length 225 m; draft 15.2 m.

Type: Ship. MMSI: 477743200.

Date/timePositionNaut miles runAvg speedWind from/ knotsBaromVisibWave heightAir tempDewpointWater temp
2018-Apr-02 16:49N 01°13' E 103°31'3 9.7
2018-Apr-02 16:27N 01°12' E 103°34'4 9.7
2018-Apr-02 16:00N 01°11' E 103°38'510.3
2018-Apr-02 15:30N 01°09' E 103°43'18 6.3
2018-Apr-02 12:42N 01°17' E 103°59'0 0.0
2018-Apr-02 12:30N 01°17' E 103°59'0 0.1
2018-Apr-02 11:39N 01°17' E 103°59'0 0.0
2018-Apr-02 07:12N 01°17' E 103°59'0 0.3
2018-Apr-02 06:42N 01°17' E 103°59'0 0.1
2018-Apr-02 05:33N 01°17' E 103°59'0 0.0
2018-Apr-02 05:27N 01°17' E 103°59'0 0.0
2018-Apr-02 04:51N 01°17' E 103°59'0 0.0
2018-Apr-01 23:00N 01°17' E 103°59'0 0.0
2018-Apr-01 22:25N 01°17' E 103°59'1 1.7
2018-Apr-01 21:54N 01°17' E 103°60'1 1.6
2018-Apr-01 21:28N 01°16' E 103°60'  
Track history (hours):
 
Tides and Currents Weather Stations Pressure Air Temp Water Temp Dewpoint Dewpoint Depression Visibility Wind Speed Wind Dir Waves Ship Positions

Rosco Poplar

Last reported at 2018-Apr-02 16:49 UTC. Time now 2018-Apr-20 06:59 UTC.
Position N 01°13' E 103°31'.
Warning: this ship's position is 17 days out of date.

Length 225 m; draft 15.2 m.

Type: Ship. MMSI: 477743200.

Date/timePositionNaut miles runAvg speedWind from/ knotsBaromVisibWave heightAir tempDewpointWater temp
2018-Apr-02 16:49N 01°13' E 103°31'3 9.7
2018-Apr-02 16:27N 01°12' E 103°34'4 9.7
2018-Apr-02 16:00N 01°11' E 103°38'510.3
2018-Apr-02 15:30N 01°09' E 103°43'18 6.3
2018-Apr-02 12:42N 01°17' E 103°59'0 0.0
2018-Apr-02 12:30N 01°17' E 103°59'0 0.1
2018-Apr-02 11:39N 01°17' E 103°59'0 0.0
2018-Apr-02 07:12N 01°17' E 103°59'0 0.3
2018-Apr-02 06:42N 01°17' E 103°59'0 0.1
2018-Apr-02 05:33N 01°17' E 103°59'0 0.0
2018-Apr-02 05:27N 01°17' E 103°59'0 0.0
2018-Apr-02 04:51N 01°17' E 103°59'0 0.0
2018-Apr-01 23:00N 01°17' E 103°59'0 0.0
2018-Apr-01 22:25N 01°17' E 103°59'1 1.7
2018-Apr-01 21:54N 01°17' E 103°60'1 1.6
2018-Apr-01 21:28N 01°16' E 103°60'  

Dump ship's entire track history